Time;durP1;ratioP1;P1;durP2;ratioP2;P2;SDS_P1;SDS_P2;PMS_P1;PMS_P2;Temp;Humidity;BMP_temperature;BMP_pressure;BME280_temperature;BME280_humidity;BME280_pressure;Samples;Min_cycle;Max_cycle;Signal;HPM_P1;HPM_P2
2022/03/15 00:01:21;;;;;;;5.28;2.78;;;19.00;43.20;;;;;;5071476;28;20033;-62
2022/03/15 00:03:48;;;;;;;4.65;2.88;;;19.00;43.20;;;;;;5073600;28;20017;-61
2022/03/15 00:06:14;;;;;;;3.60;2.60;;;19.00;43.30;;;;;;5055717;28;20016;-61
2022/03/15 00:08:41;;;;;;;3.78;2.75;;;19.00;43.30;;;;;;5055810;28;20024;-61
2022/03/15 00:11:07;;;;;;;4.68;2.53;;;19.00;43.30;;;;;;5073348;28;20024;-61
2022/03/15 00:13:38;;;;;;;5.10;2.55;;;19.00;43.30;;;;;;5055492;28;20024;-62
2022/03/15 00:16:04;;;;;;;4.30;2.83;;;19.00;43.30;;;;;;5072973;28;20016;-62
2022/03/15 00:18:30;;;;;;;6.25;2.85;;;19.00;43.40;;;;;;5072744;28;20530;-62
2022/03/15 00:20:58;;;;;;;5.80;3.25;;;19.00;43.40;;;;;;5073142;28;20053;-61
2022/03/15 00:23:24;;;;;;;5.53;2.67;;;19.00;43.40;;;;;;5073004;28;20012;-61
2022/03/15 00:25:50;;;;;;;4.85;2.90;;;19.00;43.40;;;;;;5072904;28;20009;-62
2022/03/15 00:28:22;;;;;;;4.68;2.50;;;19.00;43.40;;;;;;5073148;28;20013;-61
2022/03/15 00:30:48;;;;;;;3.35;2.53;;;19.00;43.40;;;;;;5055537;28;20508;-61
2022/03/15 00:33:15;;;;;;;4.85;2.78;;;19.00;43.50;;;;;;5072961;28;20032;-61
2022/03/15 00:35:40;;;;;;;3.72;2.85;;;19.00;43.50;;;;;;5072803;28;20020;-62
2022/03/15 00:38:07;;;;;;;4.68;3.10;;;19.00;43.50;;;;;;5073037;28;20032;-61
2022/03/15 00:40:33;;;;;;;5.95;2.90;;;19.00;43.50;;;;;;5072719;28;20100;-62
2022/03/15 00:42:59;;;;;;;4.68;2.97;;;19.00;43.50;;;;;;5073052;28;20048;-62
2022/03/15 00:45:28;;;;;;;3.38;2.50;;;18.90;43.50;;;;;;5073103;28;20017;-62
2022/03/15 00:47:54;;;;;;;5.85;2.85;;;19.00;43.50;;;;;;5072907;28;20091;-61
2022/03/15 00:50:20;;;;;;;4.15;2.72;;;19.00;43.60;;;;;;5073022;28;20020;-61
2022/03/15 00:52:47;;;;;;;6.13;3.25;;;19.00;43.60;;;;;;5072477;28;20021;-62
2022/03/15 00:55:13;;;;;;;5.57;3.03;;;18.90;43.50;;;;;;5072907;28;20024;-61
2022/03/15 00:57:39;;;;;;;4.15;2.60;;;19.00;43.60;;;;;;5072565;28;20020;-62
2022/03/15 01:00:05;;;;;;;4.63;2.72;;;18.90;43.50;;;;;;5055015;28;20017;-62
2022/03/15 01:02:33;;;;;;;4.10;2.65;;;18.90;43.60;;;;;;5072897;28;20012;-61
2022/03/15 01:04:59;;;;;;;5.68;2.60;;;18.90;43.60;;;;;;5072481;28;20036;-62
2022/03/15 01:07:26;;;;;;;6.28;2.90;;;18.90;43.60;;;;;;5072793;28;20075;-61
2022/03/15 01:09:52;;;;;;;3.85;2.95;;;18.90;43.60;;;;;;5072762;28;20031;-61
2022/03/15 01:12:18;;;;;;;4.55;2.78;;;18.90;43.70;;;;;;5072832;28;20031;-61
2022/03/15 01:14:44;;;;;;;5.68;3.17;;;18.90;43.70;;;;;;5059131;28;20013;-62
2022/03/15 01:17:11;;;;;;;4.03;2.88;;;18.90;43.70;;;;;;5076467;28;20072;-61
2022/03/15 01:19:38;;;;;;;4.68;3.13;;;18.90;43.70;;;;;;5076296;28;20024;-61
2022/03/15 01:22:04;;;;;;;5.32;3.17;;;18.90;43.70;;;;;;5058263;28;20028;-61
2022/03/15 01:24:30;;;;;;;6.68;3.15;;;18.80;43.70;;;;;;5076456;28;20021;-61
2022/03/15 01:26:58;;;;;;;7.07;3.33;;;18.90;43.80;;;;;;5058845;28;20064;-62
2022/03/15 01:29:26;;;;;;;4.25;2.78;;;18.90;43.80;;;;;;5075987;28;20024;-61
2022/03/15 01:31:51;;;;;;;4.30;3.25;;;18.90;43.80;;;;;;5075971;28;20036;-61
2022/03/15 01:34:18;;;;;;;5.80;3.13;;;18.90;43.80;;;;;;5058296;28;20020;-62
2022/03/15 01:36:43;;;;;;;5.85;2.85;;;18.90;43.80;;;;;;5076272;28;20017;-62
2022/03/15 01:39:09;;;;;;;4.35;2.80;;;18.90;43.80;;;;;;5058171;28;20044;-61
2022/03/15 01:41:36;;;;;;;3.97;2.88;;;18.80;44.30;;;;;;5075902;28;20027;-62
2022/03/15 01:44:04;;;;;;;4.40;2.58;;;18.90;43.80;;;;;;5058076;28;20112;-61
2022/03/15 01:46:30;;;;;;;4.90;3.03;;;18.80;43.80;;;;;;5076158;28;20027;-62
2022/03/15 01:48:57;;;;;;;7.28;2.58;;;18.80;43.80;;;;;;5075789;28;20021;-61
2022/03/15 01:51:23;;;;;;;4.18;3.03;;;18.80;43.80;;;;;;5075846;28;20100;-62
2022/03/15 01:53:52;;;;;;;5.75;3.00;;;18.80;43.90;;;;;;5075878;28;20015;-61
2022/03/15 01:56:18;;;;;;;5.38;3.35;;;18.80;43.90;;;;;;5075540;28;20051;-61
2022/03/15 01:58:44;;;;;;;4.35;2.95;;;18.80;43.90;;;;;;5075757;28;20108;-62
2022/03/15 02:01:11;;;;;;;5.60;3.20;;;18.80;43.90;;;;;;5075779;28;20074;-62
2022/03/15 02:03:37;;;;;;;6.10;3.13;;;18.80;43.90;;;;;;5075683;28;20017;-61
2022/03/15 02:06:05;;;;;;;4.68;3.03;;;18.80;43.90;;;;;;5075737;28;20020;-61
2022/03/15 02:08:31;;;;;;;5.60;2.80;;;18.80;43.90;;;;;;5075672;28;20013;-61
2022/03/15 02:10:57;;;;;;;5.55;3.20;;;18.80;43.90;;;;;;5075561;28;20083;-62
2022/03/15 02:13:23;;;;;;;4.40;2.80;;;18.80;43.90;;;;;;5075312;28;20451;-61
2022/03/15 02:15:49;;;;;;;3.75;2.83;;;18.80;43.90;;;;;;5075496;28;20013;-61
2022/03/15 02:18:18;;;;;;;4.72;3.25;;;18.80;43.90;;;;;;5075055;28;20486;-61
2022/03/15 02:20:44;;;;;;;4.97;3.00;;;18.80;44.00;;;;;;5075052;28;20087;-62
2022/03/15 02:23:14;;;;;;;3.80;2.90;;;18.80;44.00;;;;;;5075339;28;20044;-62
2022/03/15 02:25:40;;;;;;;6.43;3.25;;;18.80;44.00;;;;;;5074032;28;20031;-62
2022/03/15 02:28:06;;;;;;;4.85;3.17;;;18.80;44.00;;;;;;5075315;28;20016;-61
2022/03/15 02:30:33;;;;;;;5.38;3.00;;;18.80;44.00;;;;;;5057035;28;20020;-62
2022/03/15 02:32:59;;;;;;;3.70;2.90;;;18.80;44.00;;;;;;5075040;28;20025;-61
2022/03/15 02:35:25;;;;;;;3.95;2.85;;;18.80;44.00;;;;;;5075119;28;20009;-61
2022/03/15 02:37:51;;;;;;;5.38;3.08;;;18.80;44.00;;;;;;5075160;28;20086;-62
2022/03/15 02:40:18;;;;;;;5.72;2.95;;;18.80;44.10;;;;;;5057257;28;20040;-62
2022/03/15 02:42:44;;;;;;;5.13;3.00;;;18.80;44.10;;;;;;5057080;28;20154;-62
2022/03/15 02:45:10;;;;;;;4.38;3.17;;;18.80;44.10;;;;;;5074963;28;20809;-62
2022/03/15 02:47:38;;;;;;;5.50;3.08;;;18.70;44.10;;;;;;5057015;28;20096;-62
2022/03/15 02:50:05;;;;;;;6.78;3.00;;;18.80;44.10;;;;;;5074898;28;20092;-61
2022/03/15 02:52:32;;;;;;;4.18;2.83;;;18.70;44.10;;;;;;5057058;28;20033;-62
2022/03/15 02:54:58;;;;;;;4.57;3.03;;;18.70;44.10;;;;;;5074832;28;20020;-62
2022/03/15 02:57:24;;;;;;;5.28;2.97;;;18.70;44.10;;;;;;5074728;28;20013;-61
2022/03/15 02:59:51;;;;;;;4.20;3.00;;;18.70;44.10;;;;;;5056893;28;20466;-62
2022/03/15 03:02:17;;;;;;;5.53;2.97;;;18.70;44.10;;;;;;5074698;28;20016;-62
2022/03/15 03:04:51;;;;;;;4.32;2.97;;;18.70;44.10;;;;;;5074223;28;20478;-62
2022/03/15 03:07:19;;;;;;;4.88;3.38;;;18.70;44.20;;;;;;5074475;28;20104;-62
2022/03/15 03:09:45;;;;;;;4.10;2.83;;;18.70;44.10;;;;;;5074280;28;20470;-61
2022/03/15 03:12:11;;;;;;;3.88;2.70;;;18.70;44.10;;;;;;5074280;28;20082;-61
2022/03/15 03:14:38;;;;;;;5.13;3.05;;;18.70;44.10;;;;;;5056613;28;20092;-61
2022/03/15 03:17:05;;;;;;;4.35;2.90;;;18.70;44.20;;;;;;5073843;28;20044;-61
2022/03/15 03:19:31;;;;;;;5.63;3.25;;;18.70;44.20;;;;;;5056102;28;20008;-61
2022/03/15 03:21:59;;;;;;;5.18;3.35;;;18.70;44.20;;;;;;5074281;28;20017;-61
2022/03/15 03:24:25;;;;;;;5.30;3.30;;;18.70;44.20;;;;;;5073951;28;20497;-61
2022/03/15 03:26:52;;;;;;;5.07;3.08;;;18.70;44.20;;;;;;5074156;28;20082;-62
2022/03/15 03:29:18;;;;;;;5.65;2.90;;;18.70;44.20;;;;;;5073801;28;20016;-61
2022/03/15 03:31:44;;;;;;;5.15;3.22;;;18.70;44.20;;;;;;5073722;28;20112;-61
2022/03/15 03:34:11;;;;;;;5.03;3.33;;;18.70;44.20;;;;;;5073632;28;20028;-62
2022/03/15 03:36:37;;;;;;;4.88;3.20;;;18.70;44.20;;;;;;5073474;28;20038;-61
2022/03/15 03:39:04;;;;;;;4.63;2.90;;;18.70;44.30;;;;;;5056341;28;20116;-61
2022/03/15 03:41:29;;;;;;;5.70;3.53;;;18.70;44.20;;;;;;5073562;28;20020;-62
2022/03/15 03:43:55;;;;;;;5.22;3.08;;;18.70;44.20;;;;;;5055532;28;20025;-62
2022/03/15 03:46:21;;;;;;;4.70;3.03;;;18.70;44.20;;;;;;5073717;28;20040;-62
2022/03/15 03:48:48;;;;;;;7.32;3.47;;;18.70;44.20;;;;;;5073716;28;20066;-61
2022/03/15 03:51:14;;;;;;;5.65;3.10;;;18.70;44.20;;;;;;5055767;28;20025;-62
2022/03/15 03:53:40;;;;;;;3.92;2.70;;;18.70;44.20;;;;;;5073561;28;20019;-61
2022/03/15 03:56:06;;;;;;;5.97;3.15;;;18.70;44.30;;;;;;5055598;28;20465;-62
2022/03/15 03:58:34;;;;;;;5.72;3.45;;;18.60;44.20;;;;;;5073608;28;20062;-62
2022/03/15 04:01:01;;;;;;;4.07;2.90;;;18.60;44.20;;;;;;5073120;28;20428;-61
2022/03/15 04:03:29;;;;;;;5.88;3.40;;;18.60;44.20;;;;;;5073265;28;20039;-61
2022/03/15 04:05:55;;;;;;;5.65;3.35;;;18.60;44.20;;;;;;5076309;28;20017;-61
2022/03/15 04:08:23;;;;;;;5.68;3.05;;;18.60;44.20;;;;;;5057364;28;20390;-62
2022/03/15 04:10:50;;;;;;;5.43;2.95;;;18.60;44.30;;;;;;5073092;28;20482;-62
2022/03/15 04:13:18;;;;;;;4.35;2.90;;;18.60;44.20;;;;;;5073154;28;20034;-61
2022/03/15 04:15:47;;;;;;;4.78;3.20;;;18.60;44.30;;;;;;5072973;28;20016;-62
2022/03/15 04:18:12;;;;;;;6.15;3.05;;;18.60;44.30;;;;;;5072856;28;20041;-62
2022/03/15 04:20:39;;;;;;;4.95;3.08;;;18.60;44.30;;;;;;5073257;28;20045;-61
2022/03/15 04:23:06;;;;;;;5.18;3.13;;;18.60;44.30;;;;;;5073219;28;20126;-62
2022/03/15 04:25:31;;;;;;;4.85;3.13;;;18.60;44.30;;;;;;5073132;28;20031;-61
2022/03/15 04:28:00;;;;;;;4.60;3.20;;;18.60;44.40;;;;;;5073150;28;20390;-61
2022/03/15 04:30:29;;;;;;;5.35;2.90;;;18.60;44.40;;;;;;5073202;28;20033;-61
2022/03/15 04:32:55;;;;;;;4.53;3.10;;;18.60;44.40;;;;;;5073070;28;20104;-61
2022/03/15 04:35:21;;;;;;;4.72;3.08;;;18.60;44.30;;;;;;5073126;28;20043;-62
2022/03/15 04:37:47;;;;;;;5.70;3.08;;;18.60;44.30;;;;;;5055019;28;20394;-62
2022/03/15 04:40:13;;;;;;;4.90;3.03;;;18.60;44.40;;;;;;5073044;28;20052;-61
2022/03/15 04:42:39;;;;;;;5.68;3.40;;;18.60;44.30;;;;;;5072992;28;20021;-61
2022/03/15 04:45:06;;;;;;;6.70;2.90;;;18.60;44.30;;;;;;5072670;28;20527;-61
2022/03/15 04:47:31;;;;;;;4.57;3.10;;;18.60;44.30;;;;;;5072495;28;20020;-61
2022/03/15 04:49:57;;;;;;;5.30;3.20;;;18.70;44.00;;;;;;5073088;28;20374;-61
2022/03/15 04:52:23;;;;;;;5.05;2.97;;;18.80;43.80;;;;;;5072930;28;20162;-61
2022/03/15 04:54:49;;;;;;;5.72;2.53;;;18.90;43.60;;;;;;5073198;28;20446;-62
2022/03/15 04:57:15;;;;;;;4.68;3.13;;;18.90;43.50;;;;;;5073189;28;20016;-61
2022/03/15 04:59:40;;;;;;;5.78;3.22;;;19.00;43.60;;;;;;5073093;28;20414;-62
2022/03/15 05:02:09;;;;;;;4.70;3.00;;;19.00;43.50;;;;;;5073119;28;20021;-61
2022/03/15 05:04:35;;;;;;;5.00;2.70;;;19.00;43.50;;;;;;5072740;28;20017;-62
2022/03/15 05:07:01;;;;;;;4.53;3.05;;;19.00;43.40;;;;;;5073142;28;20074;-62
2022/03/15 05:09:27;;;;;;;3.70;2.55;;;18.90;43.40;;;;;;5072783;28;20463;-62
2022/03/15 05:11:53;;;;;;;4.97;2.88;;;19.00;43.50;;;;;;5072499;28;20028;-61
2022/03/15 05:14:19;;;;;;;5.43;3.05;;;19.00;43.40;;;;;;5072686;28;20081;-61
2022/03/15 05:16:45;;;;;;;5.43;3.00;;;19.10;43.20;;;;;;5072296;28;20459;-62
2022/03/15 05:19:11;;;;;;;3.67;2.75;;;19.20;43.10;;;;;;5072729;28;20088;-61
2022/03/15 05:21:37;;;;;;;5.22;2.90;;;19.20;42.90;;;;;;5072655;28;20352;-61
2022/03/15 05:24:04;;;;;;;3.85;2.97;;;19.20;42.90;;;;;;5072659;28;20021;-61
2022/03/15 05:26:29;;;;;;;4.07;2.83;;;19.30;42.90;;;;;;5073341;28;20025;-61
2022/03/15 05:28:56;;;;;;;4.40;2.88;;;19.30;42.80;;;;;;5055148;28;20070;-62
2022/03/15 05:31:22;;;;;;;4.40;2.95;;;19.30;42.80;;;;;;5072772;28;20021;-62
2022/03/15 05:33:49;;;;;;;3.92;2.90;;;19.40;42.70;;;;;;5072660;28;20008;-61
2022/03/15 05:36:15;;;;;;;3.75;2.50;;;19.40;42.50;;;;;;5072722;28;20016;-62
2022/03/15 05:38:41;;;;;;;5.00;3.10;;;19.50;42.40;;;;;;5072220;28;20009;-62
2022/03/15 05:41:09;;;;;;;3.78;2.80;;;19.50;42.30;;;;;;5072186;28;20093;-62
2022/03/15 05:43:36;;;;;;;6.60;3.13;;;19.60;42.20;;;;;;5055109;28;20016;-61
2022/03/15 05:46:02;;;;;;;5.20;3.25;;;19.70;42.20;;;;;;5054281;28;20052;-61
2022/03/15 05:48:28;;;;;;;4.57;3.10;;;19.70;42.10;;;;;;5054299;28;20063;-62
2022/03/15 05:50:54;;;;;;;4.10;2.67;;;19.80;41.90;;;;;;5072049;28;20033;-62
2022/03/15 05:53:20;;;;;;;7.15;3.22;;;19.80;41.80;;;;;;5072225;28;20020;-62
2022/03/15 05:55:46;;;;;;;3.22;2.60;;;19.80;41.70;;;;;;5054378;28;20005;-62
2022/03/15 05:58:14;;;;;;;4.40;2.58;;;19.90;41.70;;;;;;5037533;28;20067;-61
2022/03/15 06:00:40;;;;;;;4.07;2.80;;;19.90;41.60;;;;;;5074194;28;20024;-61
2022/03/15 06:03:07;;;;;;;4.60;2.95;;;20.00;41.50;;;;;;5041120;28;20103;-61
2022/03/15 06:05:33;;;;;;;4.65;2.92;;;20.00;41.50;;;;;;5075357;28;20020;-62
2022/03/15 06:07:58;;;;;;;5.07;2.97;;;20.00;41.40;;;;;;5057936;28;20020;-62
2022/03/15 06:10:28;;;;;;;4.78;3.05;;;20.10;41.40;;;;;;5075429;28;20489;-62
2022/03/15 06:12:54;;;;;;;3.72;2.80;;;20.10;41.30;;;;;;5058370;28;20079;-62
2022/03/15 06:15:20;;;;;;;5.68;2.63;;;20.20;41.30;;;;;;5075601;28;20407;-62
2022/03/15 06:17:50;;;;;;;4.10;2.83;;;20.20;41.30;;;;;;5075225;28;20041;-62
2022/03/15 06:20:17;;;;;;;4.15;2.67;;;20.20;41.20;;;;;;5075205;28;20525;-62
2022/03/15 06:22:43;;;;;;;4.07;2.90;;;20.20;41.20;;;;;;5075171;28;20585;-62
2022/03/15 06:25:09;;;;;;;5.68;3.40;;;20.20;41.10;;;;;;5075075;28;20111;-62
2022/03/15 06:27:35;;;;;;;5.45;2.88;;;20.20;41.10;;;;;;5075007;28;20016;-62
2022/03/15 06:30:06;;;;;;;5.68;2.90;;;20.20;41.00;;;;;;5075312;28;20017;-62
2022/03/15 06:32:34;;;;;;;4.47;2.83;;;20.20;41.00;;;;;;5075261;28;20032;-61
2022/03/15 06:35:05;;;;;;;3.67;2.70;;;20.30;40.90;;;;;;5075286;28;20020;-62
2022/03/15 06:37:31;;;;;;;4.13;2.85;;;20.30;40.90;;;;;;5057799;28;20096;-61
2022/03/15 06:39:57;;;;;;;5.93;3.10;;;20.30;40.90;;;;;;5074977;28;20466;-62
2022/03/15 06:42:23;;;;;;;3.05;2.55;;;20.40;40.90;;;;;;5057478;28;20032;-61
2022/03/15 06:44:49;;;;;;;4.38;2.97;;;20.40;40.90;;;;;;5057802;28;20474;-62
2022/03/15 06:47:15;;;;;;;3.72;2.30;;;20.40;40.80;;;;;;5074993;28;20092;-61
2022/03/15 06:49:42;;;;;;;4.63;2.90;;;20.40;40.70;;;;;;5074889;28;20071;-61
2022/03/15 06:52:09;;;;;;;4.10;2.97;;;20.40;40.70;;;;;;5056767;28;20020;-62
2022/03/15 06:54:35;;;;;;;4.25;2.60;;;20.50;40.70;;;;;;5074476;28;20458;-63
2022/03/15 06:57:01;;;;;;;4.05;2.65;;;20.50;40.70;;;;;;5074587;28;20505;-62
2022/03/15 06:59:27;;;;;;;3.13;2.53;;;20.50;40.70;;;;;;5074054;28;20020;-60
2022/03/15 07:01:53;;;;;;;3.47;2.80;;;20.50;40.60;;;;;;5073901;28;20021;-62
2022/03/15 07:04:22;;;;;;;3.95;2.80;;;20.50;40.60;;;;;;5056375;28;20028;-62
2022/03/15 07:06:48;;;;;;;3.97;2.40;;;20.50;40.50;;;;;;5056014;28;20020;-61
2022/03/15 07:09:14;;;;;;;4.90;2.85;;;20.60;40.60;;;;;;5073920;28;20017;-61
2022/03/15 07:11:40;;;;;;;4.75;2.75;;;20.60;40.50;;;;;;5055538;28;20055;-60
2022/03/15 07:14:07;;;;;;;3.33;2.67;;;20.60;40.50;;;;;;5039134;28;20608;-61
2022/03/15 07:16:32;;;;;;;5.43;2.72;;;20.60;40.40;;;;;;5073650;28;20052;-62
2022/03/15 07:18:58;;;;;;;3.95;2.45;;;20.70;40.50;;;;;;5056159;28;20092;-63
2022/03/15 07:21:28;;;;;;;3.80;2.60;;;20.60;40.40;;;;;;5073355;28;20009;-65
2022/03/15 07:24:03;;;;;;;6.10;3.00;;;20.60;40.50;;;;;;5055030;28;20016;-64
2022/03/15 07:26:29;;;;;;;9.68;3.17;;;20.40;40.30;;;;;;5073243;28;20048;-63
2022/03/15 07:28:56;;;;;;;7.68;3.03;;;20.30;40.50;;;;;;5055395;28;20101;-64
2022/03/15 07:31:22;;;;;;;9.10;4.00;;;20.10;41.00;;;;;;5072911;28;20017;-62
2022/03/15 07:33:47;;;;;;;12.27;3.45;;;20.00;40.60;;;;;;5073111;28;20421;-64
2022/03/15 07:36:14;;;;;;;14.20;4.13;;;20.00;40.70;;;;;;5055124;28;20025;-61
2022/03/15 07:38:40;;;;;;;11.60;4.00;;;20.00;40.80;;;;;;5073125;28;20016;-60
2022/03/15 07:41:06;;;;;;;14.75;4.05;;;20.10;40.40;;;;;;5072873;28;20047;-61
2022/03/15 07:43:32;;;;;;;16.10;4.00;;;20.10;40.50;;;;;;5072274;28;20021;-61
2022/03/15 07:45:58;;;;;;;11.07;4.18;;;20.20;40.40;;;;;;5072505;28;20029;-60
2022/03/15 07:48:24;;;;;;;8.90;3.40;;;20.20;40.20;;;;;;5072193;28;20108;-60
2022/03/15 07:50:52;;;;;;;9.93;3.83;;;20.30;40.20;;;;;;5072281;28;20044;-60
2022/03/15 07:53:18;;;;;;;10.52;4.25;;;20.40;40.10;;;;;;5072790;28;20024;-60
2022/03/15 07:55:44;;;;;;;25.40;5.25;;;20.50;40.00;;;;;;5054315;28;20039;-60
2022/03/15 07:58:10;;;;;;;19.00;5.07;;;20.40;40.20;;;;;;5072686;28;20103;-59
2022/03/15 08:00:36;;;;;;;22.25;5.80;;;20.50;40.10;;;;;;5072345;28;20485;-59
2022/03/15 08:03:02;;;;;;;23.38;5.05;;;20.50;40.20;;;;;;5054336;28;20033;-59
2022/03/15 08:05:28;;;;;;;18.33;4.93;;;20.30;40.90;;;;;;5054346;28;20019;-60
2022/03/15 08:07:55;;;;;;;25.50;5.38;;;20.30;42.20;;;;;;5037527;28;20043;-60
2022/03/15 08:10:21;;;;;;;26.70;5.38;;;20.40;42.30;;;;;;5072431;28;20406;-60
2022/03/15 08:12:47;;;;;;;18.85;4.88;;;20.40;43.10;;;;;;5072028;28;20402;-60
2022/03/15 08:15:16;;;;;;;19.00;4.82;;;20.50;43.30;;;;;;5054157;28;20030;-60
2022/03/15 08:17:43;;;;;;;23.23;5.47;;;20.50;43.10;;;;;;5074428;28;20056;-59
2022/03/15 08:20:15;;;;;;;25.90;5.25;;;20.70;42.60;;;;;;5092552;28;20009;-59
2022/03/15 08:22:41;;;;;;;22.27;5.00;;;20.80;42.50;;;;;;5092047;28;20032;-60
2022/03/15 08:25:07;;;;;;;21.05;5.53;;;20.90;42.10;;;;;;5091406;28;20392;-59
2022/03/15 08:27:34;;;;;;;36.03;5.00;;;21.00;41.70;;;;;;5092459;28;20028;-59
2022/03/15 08:29:59;;;;;;;18.23;4.95;;;21.10;41.40;;;;;;5092470;28;20099;-59
2022/03/15 08:32:25;;;;;;;20.23;4.85;;;21.30;40.90;;;;;;5092516;28;20111;-60
2022/03/15 08:34:51;;;;;;;15.13;4.80;;;21.40;40.60;;;;;;5092517;28;20100;-61
2022/03/15 08:37:20;;;;;;;33.70;5.28;;;21.50;40.50;;;;;;5092478;28;20016;-60
2022/03/15 08:39:46;;;;;;;26.83;5.78;;;21.70;40.20;;;;;;5092379;28;20020;-60
2022/03/15 08:42:12;;;;;;;26.42;4.60;;;21.80;40.00;;;;;;5092501;28;20027;-59
2022/03/15 08:44:41;;;;;;;18.23;4.78;;;21.90;39.60;;;;;;5091243;28;20132;-62
2022/03/15 08:47:07;;;;;;;18.13;4.20;;;22.00;39.20;;;;;;5092611;28;20016;-61
2022/03/15 08:49:34;;;;;;;15.63;4.20;;;22.20;38.90;;;;;;5092619;28;20078;-62
2022/03/15 08:52:00;;;;;;;19.02;4.40;;;22.30;38.50;;;;;;5074451;28;20096;-61
2022/03/15 08:54:27;;;;;;;14.23;4.57;;;22.40;38.40;;;;;;5092421;28;20074;-60
2022/03/15 08:56:53;;;;;;;19.83;4.93;;;22.40;38.10;;;;;;5092463;28;20078;-62
2022/03/15 08:59:20;;;;;;;21.48;5.20;;;22.40;37.80;;;;;;5090877;28;20096;-60
2022/03/15 09:01:46;;;;;;;20.98;5.35;;;22.40;37.60;;;;;;5090851;28;20115;-61
2022/03/15 09:04:13;;;;;;;15.25;4.53;;;22.50;37.60;;;;;;5092142;28;20016;-62
2022/03/15 09:06:39;;;;;;;25.08;4.97;;;22.40;37.40;;;;;;5092028;28;20021;-60
2022/03/15 09:09:05;;;;;;;20.77;5.38;;;22.40;37.60;;;;;;5092129;28;20049;-60
2022/03/15 09:11:32;;;;;;;32.03;5.13;;;22.30;37.50;;;;;;5090544;28;21994;-62
2022/03/15 09:13:58;;;;;;;17.23;4.45;;;22.30;37.10;;;;;;5090647;28;20107;-61
2022/03/15 09:16:23;;;;;;;19.98;5.03;;;22.20;36.80;;;;;;5090108;28;20027;-61
2022/03/15 09:18:49;;;;;;;23.73;4.32;;;22.10;36.70;;;;;;5056435;28;20016;-62
2022/03/15 09:21:16;;;;;;;15.35;4.13;;;22.10;36.80;;;;;;5090890;28;20040;-61
2022/03/15 09:23:42;;;;;;;18.83;4.13;;;22.20;37.30;;;;;;5073387;28;20013;-61
2022/03/15 09:26:14;;;;;;;30.42;5.25;;;22.30;37.50;;;;;;5073503;28;20103;-63
2022/03/15 09:28:44;;;;;;;25.65;4.63;;;22.50;37.50;;;;;;5073402;28;20399;-62
2022/03/15 09:31:10;;;;;;;11.27;4.57;;;22.50;37.40;;;;;;5072723;28;20020;-61
2022/03/15 09:33:36;;;;;;;26.08;4.57;;;22.60;37.10;;;;;;5091073;28;20067;-61
2022/03/15 09:36:04;;;;;;;26.42;4.50;;;22.60;37.00;;;;;;5094422;28;20107;-62
2022/03/15 09:38:30;;;;;;;11.32;4.15;;;22.70;36.80;;;;;;5059370;28;20024;-60
2022/03/15 09:40:56;;;;;;;12.10;3.92;;;22.80;36.50;;;;;;5075698;28;20015;-61
2022/03/15 09:43:23;;;;;;;11.30;3.92;;;22.90;36.50;;;;;;5075479;28;20028;-62
2022/03/15 09:45:50;;;;;;;21.23;4.18;;;23.00;36.20;;;;;;5093835;28;20111;-61
2022/03/15 09:48:19;;;;;;;14.15;4.47;;;23.10;36.10;;;;;;5075609;28;20020;-60
2022/03/15 09:50:47;;;;;;;9.00;4.15;;;23.20;36.20;;;;;;5093746;28;20020;-61
2022/03/15 09:53:14;;;;;;;8.27;3.58;;;23.20;35.90;;;;;;5075687;28;20024;-60
2022/03/15 09:55:44;;;;;;;9.65;3.78;;;23.30;36.20;;;;;;5075140;28;20512;-60
2022/03/15 09:58:12;;;;;;;10.63;3.90;;;23.30;35.90;;;;;;5093876;28;20126;-61
2022/03/15 10:00:39;;;;;;;11.57;4.53;;;23.30;36.00;;;;;;5093699;28;20020;-64
2022/03/15 10:03:05;;;;;;;14.07;3.80;;;23.30;36.60;;;;;;5093520;28;20140;-59
2022/03/15 10:05:31;;;;;;;13.80;3.95;;;23.40;36.00;;;;;;5093607;28;20445;-60
2022/03/15 10:07:57;;;;;;;13.70;3.95;;;23.40;35.90;;;;;;5074848;28;20462;-61
2022/03/15 10:10:24;;;;;;;20.42;4.65;;;23.30;36.00;;;;;;5075378;28;20024;-59
2022/03/15 10:12:51;;;;;;;16.23;5.07;;;22.90;36.50;;;;;;5094082;28;20028;-59
2022/03/15 10:15:22;;;;;;;16.58;5.22;;;22.30;36.70;;;;;;5094109;28;20092;-58
2022/03/15 10:17:56;;;;;;;15.23;5.13;;;22.00;37.10;;;;;;5093817;28;20036;-60
2022/03/15 10:20:31;;;;;;;13.32;5.00;;;21.70;37.70;;;;;;5094493;28;20028;-60
2022/03/15 10:22:58;;;;;;;8.63;4.45;;;21.40;37.80;;;;;;5075914;28;20016;-59
2022/03/15 10:25:25;;;;;;;18.55;5.03;;;21.20;38.30;;;;;;5059298;28;20061;-59
2022/03/15 10:27:53;;;;;;;8.27;4.15;;;21.10;38.70;;;;;;5094078;28;20028;-61
2022/03/15 10:30:19;;;;;;;11.98;4.57;;;21.10;38.90;;;;;;5093848;28;20015;-58
2022/03/15 10:32:46;;;;;;;11.18;3.88;;;21.10;39.00;;;;;;5075124;28;20024;-60
2022/03/15 10:35:12;;;;;;;12.40;4.35;;;21.00;38.90;;;;;;5093796;28;20513;-59
2022/03/15 10:37:41;;;;;;;11.38;4.47;;;20.90;38.90;;;;;;5094019;28;20012;-59
2022/03/15 10:40:07;;;;;;;10.93;4.80;;;20.80;39.00;;;;;;5093652;28;20436;-60
2022/03/15 10:42:39;;;;;;;10.93;3.92;;;20.70;39.10;;;;;;5093575;28;20035;-58
2022/03/15 10:45:15;;;;;;;12.93;4.03;;;20.40;39.70;;;;;;5093072;28;20052;-59
2022/03/15 10:47:51;;;;;;;14.05;4.15;;;20.40;40.00;;;;;;5093799;28;20053;-59
2022/03/15 10:50:17;;;;;;;10.88;3.78;;;20.40;40.00;;;;;;5093612;28;20061;-59
2022/03/15 10:52:45;;;;;;;13.15;4.05;;;20.40;39.80;;;;;;5093953;28;20028;-60
2022/03/15 10:55:19;;;;;;;12.60;4.03;;;20.40;40.40;;;;;;5093464;28;20081;-59
2022/03/15 10:58:00;;;;;;;17.88;4.80;;;20.60;40.10;;;;;;5075642;28;20016;-60
2022/03/15 11:00:31;;;;;;;15.80;4.30;;;20.80;39.70;;;;;;5093567;28;20016;-60
2022/03/15 11:02:57;;;;;;;10.82;3.83;;;21.10;39.20;;;;;;5075992;28;20012;-60
2022/03/15 11:05:36;;;;;;;15.05;3.92;;;21.20;38.80;;;;;;5094391;28;20019;-60
2022/03/15 11:08:14;;;;;;;15.38;3.78;;;21.30;38.60;;;;;;5094119;28;20066;-60
2022/03/15 11:10:40;;;;;;;12.00;3.53;;;21.50;38.20;;;;;;5094459;28;20016;-60
2022/03/15 11:13:11;;;;;;;13.65;3.90;;;21.60;37.90;;;;;;5076023;28;20026;-60
2022/03/15 11:15:42;;;;;;;12.20;3.42;;;21.60;37.70;;;;;;5094364;28;20005;-60
2022/03/15 11:18:08;;;;;;;11.07;3.70;;;21.70;37.60;;;;;;5093723;28;20123;-60
2022/03/15 11:20:38;;;;;;;7.28;3.30;;;21.80;37.40;;;;;;5094085;28;20063;-60
2022/03/15 11:23:05;;;;;;;8.57;3.35;;;21.80;37.30;;;;;;5093962;28;20020;-60
2022/03/15 11:25:40;;;;;;;9.35;3.50;;;21.90;37.20;;;;;;5075536;28;20024;-62
2022/03/15 11:28:09;;;;;;;13.48;3.45;;;21.90;37.10;;;;;;5093791;28;20008;-59
2022/03/15 11:30:36;;;;;;;8.30;3.40;;;22.00;36.90;;;;;;5076021;28;20073;-59
2022/03/15 11:33:03;;;;;;;8.77;3.05;;;22.00;36.80;;;;;;5093622;28;20416;-59
2022/03/15 11:35:31;;;;;;;8.82;3.47;;;22.10;36.70;;;;;;5093668;28;20008;-61
2022/03/15 11:38:02;;;;;;;14.77;3.53;;;22.10;36.60;;;;;;5093833;28;20015;-60
2022/03/15 11:40:28;;;;;;;9.30;3.20;;;22.20;36.60;;;;;;5075951;28;20016;-60
2022/03/15 11:43:13;;;;;;;7.57;2.95;;;22.20;36.60;;;;;;5075464;28;20069;-60
2022/03/15 11:45:44;;;;;;;9.20;3.58;;;22.20;36.70;;;;;;5092851;28;20020;-60
2022/03/15 11:48:23;;;;;;;8.67;3.07;;;22.20;36.70;;;;;;5092401;28;20020;-60
2022/03/15 11:51:05;;;;;;;8.68;3.05;;;22.30;36.50;;;;;;5074673;28;20743;-59
2022/03/15 11:53:37;;;;;;;14.52;3.92;;;22.20;37.30;;;;;;5093035;28;20020;-59
2022/03/15 11:56:10;;;;;;;15.13;3.67;;;22.30;38.70;;;;;;5075037;28;20020;-59
2022/03/15 11:58:36;;;;;;;12.15;3.63;;;22.20;39.20;;;;;;5092897;28;20073;-60
2022/03/15 12:01:12;;;;;;;10.90;3.72;;;22.10;39.30;;;;;;5092817;28;20096;-60
2022/03/15 12:03:49;;;;;;;14.77;4.15;;;21.90;39.50;;;;;;5071402;28;20019;-60
2022/03/15 12:06:28;;;;;;;14.48;3.25;;;22.00;39.90;;;;;;5071245;28;20120;-60
2022/03/15 12:08:57;;;;;;;11.15;3.63;;;22.00;40.00;;;;;;5092188;28;20114;-61
2022/03/15 12:11:43;;;;;;;10.77;3.25;;;22.20;40.40;;;;;;5092295;28;20047;-62
2022/03/15 12:14:17;;;;;;;12.73;3.15;;;22.20;40.10;;;;;;5073739;28;20580;-61
2022/03/15 12:16:47;;;;;;;11.35;3.58;;;22.20;39.60;;;;;;5092094;28;20032;-60
2022/03/15 12:22:00;;;;;;;12.82;3.10;;;22.30;39.80;;;;;;5075754;28;20036;-61
2022/03/15 12:24:33;;;;;;;14.95;3.20;;;22.40;40.10;;;;;;5091772;28;20018;-60
2022/03/15 12:27:02;;;;;;;11.07;2.72;;;22.20;39.50;;;;;;5092307;28;20079;-61
2022/03/15 12:29:29;;;;;;;9.32;2.67;;;22.00;39.80;;;;;;5092264;28;20101;-60
2022/03/15 12:31:56;;;;;;;8.32;2.85;;;22.10;40.00;;;;;;5092087;28;20020;-61
2022/03/15 12:34:22;;;;;;;9.88;2.78;;;22.40;40.30;;;;;;5091878;28;20019;-61
2022/03/15 12:36:54;;;;;;;16.55;4.20;;;22.80;40.40;;;;;;5056973;28;20020;-61
2022/03/15 12:39:22;;;;;;;19.80;3.10;;;22.90;40.20;;;;;;5091763;28;20020;-61
2022/03/15 12:42:03;;;;;;;10.20;2.78;;;22.50;39.00;;;;;;5073916;28;20012;-60
2022/03/15 12:44:54;;;;;;;13.48;2.50;;;22.50;40.00;;;;;;5075981;28;20073;-60
2022/03/15 12:47:26;;;;;;;8.05;2.50;;;22.50;39.80;;;;;;5092552;28;20470;-59